Salado, Arizona
Current Conditions -  °F | °C
As of 6:54 AM on Monday 24 Nov 2014 (Local Time) from KSJN Reporting Station
Clear Clear  
Wind Chill: 12°   Ceiling: Unl
Heat Index: 19°   Visibility: 10mi
Dew Point:   Wind: 5mph
Humidity: 46%   Direction: 160°SSE
Pressure: 30.21"   Gusts: NA
Location:  34.4981°N, 109.241°W
Report Text: KSJN 241354Z AUTO 16004KT 10SM CLR M07/M17 A3021 RMK AO2 SLP251 T10721172
Loading
Personal Weather Stations






























Interactive Weather Map New forecast layout! Learn more

10-Day Weather Forecast

Advertisements
Track Severe Weather on mobile